Strona główna
METAR-TAF:

METAR-TAF

Lotnisko :

Sanford Regional Airport

Sanford, Maine, Stany Zjednoczone

Szerokość geograficzna: 43-24N, Długość geograficzna: 070-43W, wysokość: 74 m

Aktualna obserwacja pogody

Raport powstał 24 minut temu, godzina 17:56 UTC
Wiatr 6 kt od południowy zachód
Temperatura 1°C
Wilgotność 51%
Ciśnienie 1020 hPa
Widzialność: 14.5 km
bezchmurnie
słaby śnieg

METAR: KSFM 231756Z AUTO 22006KT 9SM -SN CLR 01/M08 A3013 RMK AO2 SLP210 6//// T00061083 10006 21089 56047 FZRANO PNO $

czas: 13:20 (18:20 UTC)


TAF: brakujący

Obserwacja i prognoza pogody dla ponad 4000 lotnisk (raport METAR i TAF).

Dostępne stacje oznaczono żółtymi i czerwonymi punktami na mapie.

Najedź kursorem aby zobaczyć nazwę stacji.

Kliknij aby zobaczyć obserwacje i prognozy pogody.

Aby zmienić mapę: kliknij na zielony przycisk z czarnym krzyżykiem, aby powiększyć; na zielony przycisk z myślnikiem, aby pomniejszyć; na zielone strzałki, aby przejść do map sąsiednich.


METAR-TAF: